Time;durP1;ratioP1;P1;durP2;ratioP2;P2;SDS_P1;SDS_P2;PMS_P1;PMS_P2;Temp;Humidity;BMP_temperature;BMP_pressure;BME280_temperature;BME280_humidity;BME280_pressure;Samples;Min_cycle;Max_cycle;Signal;HPM_P1;HPM_P2
2021/04/18 00:00:09;;;;;;;2.63;2.43;;;9.70;86.70;;;;;;5032646;28;20985;-70
2021/04/18 00:02:37;;;;;;;5.27;3.07;;;9.70;87.20;;;;;;5046924;28;20473;-70
2021/04/18 00:05:05;;;;;;;2.97;2.40;;;9.70;86.90;;;;;;5047446;28;20462;-70
2021/04/18 00:07:31;;;;;;;3.53;2.93;;;9.70;86.80;;;;;;5032233;28;20469;-71
2021/04/18 00:09:58;;;;;;;6.77;2.57;;;9.80;87.20;;;;;;5050302;28;20448;-70
2021/04/18 00:12:25;;;;;;;5.50;2.80;;;9.70;87.20;;;;;;5048686;28;20447;-71
2021/04/18 00:14:50;;;;;;;3.23;2.57;;;9.70;87.10;;;;;;5032369;28;20442;-70
2021/04/18 00:17:16;;;;;;;4.70;2.60;;;9.70;87.40;;;;;;5031198;28;20450;-71
2021/04/18 00:19:41;;;;;;;4.87;3.03;;;9.70;87.50;;;;;;5034642;28;20198;-71
2021/04/18 00:22:07;;;;;;;3.90;2.47;;;9.70;87.60;;;;;;5019182;28;20230;-72
2021/04/18 00:24:33;;;;;;;2.90;2.60;;;9.70;87.60;;;;;;5019868;28;20672;-70
2021/04/18 00:26:59;;;;;;;2.87;2.60;;;9.70;87.40;;;;;;5046328;28;20185;-70
2021/04/18 00:29:24;;;;;;;2.73;2.47;;;9.70;87.60;;;;;;5028479;28;20188;-71
2021/04/18 00:31:50;;;;;;;2.87;2.60;;;9.70;87.50;;;;;;5021269;28;20187;-70
2021/04/18 00:34:16;;;;;;;3.03;2.30;;;9.70;87.40;;;;;;5033574;28;20725;-71
2021/04/18 00:36:41;;;;;;;2.60;2.13;;;9.70;87.60;;;;;;5002755;28;20623;-70
2021/04/18 00:39:07;;;;;;;2.60;2.40;;;9.70;87.70;;;;;;5034162;28;20268;-70
2021/04/18 00:41:34;;;;;;;5.80;2.83;;;9.70;87.70;;;;;;5052277;28;20739;-70
2021/04/18 00:43:59;;;;;;;4.37;3.40;;;9.70;87.70;;;;;;5017166;28;20702;-70
2021/04/18 00:46:25;;;;;;;3.30;2.47;;;9.70;88.00;;;;;;5050217;28;20414;-70
2021/04/18 00:48:50;;;;;;;3.93;2.83;;;9.70;88.30;;;;;;5012935;28;20211;-70
2021/04/18 00:51:17;;;;;;;3.70;2.90;;;9.70;88.30;;;;;;5014513;28;20573;-70
2021/04/18 00:53:43;;;;;;;4.40;2.73;;;9.60;88.30;;;;;;5035413;28;20547;-71
2021/04/18 00:56:10;;;;;;;3.63;2.50;;;9.60;88.80;;;;;;5035373;28;20446;-71
2021/04/18 00:58:37;;;;;;;3.20;2.83;;;9.60;88.60;;;;;;5049772;28;20466;-69
2021/04/18 01:01:05;;;;;;;3.33;2.83;;;9.70;88.80;;;;;;5018863;28;20467;-71
2021/04/18 01:03:32;;;;;;;3.80;3.20;;;9.70;88.40;;;;;;5002125;28;20537;-71
2021/04/18 01:05:58;;;;;;;5.00;2.83;;;9.70;88.30;;;;;;5017129;28;20442;-71
2021/04/18 01:08:24;;;;;;;5.57;3.13;;;9.70;88.20;;;;;;5032670;28;20453;-69
2021/04/18 01:10:50;;;;;;;3.67;2.70;;;9.70;88.30;;;;;;5026142;28;20219;-69
2021/04/18 01:13:16;;;;;;;5.30;3.17;;;9.70;88.20;;;;;;5047557;28;20216;-70
2021/04/18 01:15:41;;;;;;;4.57;2.73;;;9.70;88.30;;;;;;5052310;28;20794;-71
2021/04/18 01:18:09;;;;;;;5.30;2.70;;;9.60;88.40;;;;;;5050676;28;20212;-71
2021/04/18 01:20:35;;;;;;;2.90;2.67;;;9.60;88.70;;;;;;5052784;28;20421;-71
2021/04/18 01:23:29;;;;;;;2.97;2.60;;;9.60;88.60;;;;;;5037481;28;20456;-72
2021/04/18 01:26:33;;;;;;;3.40;2.53;;;9.60;88.50;;;;;;5008640;28;20431;-70
2021/04/18 01:29:00;;;;;;;3.70;3.27;;;9.60;88.80;;;;;;5017668;28;20557;-70
2021/04/18 01:31:25;;;;;;;8.53;3.37;;;9.50;88.90;;;;;;5048024;28;20439;-71
2021/04/18 01:33:51;;;;;;;4.47;3.30;;;9.50;89.10;;;;;;5015089;28;20472;-70
2021/04/18 01:36:19;;;;;;;4.23;3.10;;;9.50;89.20;;;;;;5017889;28;20203;-69
2021/04/18 01:38:46;;;;;;;3.47;3.00;;;9.50;89.40;;;;;;5032375;28;20875;-69
2021/04/18 01:41:12;;;;;;;5.57;3.10;;;9.50;89.40;;;;;;5015722;28;20463;-70
2021/04/18 01:43:39;;;;;;;4.87;3.87;;;9.40;89.70;;;;;;5031681;28;20443;-72
2021/04/18 01:46:05;;;;;;;4.27;3.03;;;9.40;89.90;;;;;;5033332;28;21053;-69
2021/04/18 01:48:32;;;;;;;5.00;3.00;;;9.40;89.70;;;;;;5049259;28;20481;-70
2021/04/18 01:51:09;;;;;;;5.60;3.83;;;9.40;89.90;;;;;;5033140;28;20458;-71
2021/04/18 01:53:35;;;;;;;5.70;3.47;;;9.40;89.60;;;;;;5033401;28;20454;-70
2021/04/18 01:56:03;;;;;;;3.70;2.53;;;9.50;89.40;;;;;;5032967;28;20438;-71
2021/04/18 01:58:31;;;;;;;4.10;2.80;;;9.50;89.40;;;;;;5032464;28;20505;-72
2021/04/18 02:01:23;;;;;;;3.73;2.87;;;9.60;89.50;;;;;;5003224;28;20486;-71
2021/04/18 02:03:49;;;;;;;5.33;3.13;;;9.60;89.60;;;;;;5050003;28;20451;-71
2021/04/18 02:06:16;;;;;;;5.70;2.60;;;9.60;89.60;;;;;;5018414;28;20802;-71
2021/04/18 02:08:49;;;;;;;3.43;2.63;;;9.60;90.10;;;;;;5034236;28;20832;-69
2021/04/18 02:11:21;;;;;;;3.77;2.80;;;9.60;89.50;;;;;;5034934;28;20469;-71
2021/04/18 02:13:48;;;;;;;2.73;2.37;;;9.60;89.50;;;;;;5034077;28;20783;-70
2021/04/18 02:16:34;;;;;;;6.70;3.07;;;9.60;89.50;;;;;;5048484;28;20775;-71
2021/04/18 02:19:05;;;;;;;5.27;3.60;;;9.60;89.50;;;;;;5050080;28;20504;-70
2021/04/18 02:21:34;;;;;;;6.67;3.60;;;9.60;89.70;;;;;;5018718;28;20462;-71
2021/04/18 02:24:01;;;;;;;4.30;3.00;;;9.60;89.60;;;;;;5033556;28;20821;-71
2021/04/18 02:26:27;;;;;;;5.27;3.20;;;9.60;89.60;;;;;;5014804;28;21000;-71
2021/04/18 02:28:54;;;;;;;8.90;2.97;;;9.60;90.10;;;;;;4997320;28;20455;-72
2021/04/18 02:31:21;;;;;;;3.53;2.73;;;9.60;89.60;;;;;;5017002;28;20799;-71
2021/04/18 02:33:47;;;;;;;4.33;3.13;;;9.60;89.70;;;;;;5017467;28;20455;-72
2021/04/18 02:36:13;;;;;;;4.00;3.20;;;9.60;89.70;;;;;;5034231;28;20827;-70
2021/04/18 02:38:40;;;;;;;3.87;3.00;;;9.60;89.80;;;;;;5047003;28;20212;-71
2021/04/18 02:41:08;;;;;;;5.57;2.80;;;9.60;89.50;;;;;;5047348;28;20454;-71
2021/04/18 02:43:34;;;;;;;3.50;3.10;;;9.60;89.50;;;;;;5033154;28;20456;-70
2021/04/18 02:46:00;;;;;;;4.47;2.57;;;9.60;89.70;;;;;;5017590;28;20447;-70
2021/04/18 02:48:27;;;;;;;4.73;2.90;;;9.60;89.80;;;;;;5016863;28;20447;-71
2021/04/18 02:50:52;;;;;;;4.53;3.27;;;9.60;89.80;;;;;;5017047;28;20522;-70
2021/04/18 02:53:18;;;;;;;3.30;2.97;;;9.60;89.80;;;;;;5032850;28;20219;-70
2021/04/18 02:55:44;;;;;;;2.40;2.20;;;9.60;89.90;;;;;;5013672;28;20716;-71
2021/04/18 02:58:33;;;;;;;3.63;2.83;;;9.60;89.90;;;;;;5019143;28;20224;-70
2021/04/18 03:00:59;;;;;;;3.27;2.93;;;9.60;89.80;;;;;;5013570;28;20982;-71
2021/04/18 03:03:25;;;;;;;4.17;2.80;;;9.60;89.90;;;;;;5013045;28;20462;-70
2021/04/18 03:05:51;;;;;;;4.47;3.10;;;9.60;89.90;;;;;;5033488;28;20199;-70
2021/04/18 03:08:16;;;;;;;3.63;3.10;;;9.60;89.90;;;;;;5015382;28;20491;-70
2021/04/18 03:10:42;;;;;;;3.37;2.37;;;9.60;90.00;;;;;;5016063;28;20172;-70
2021/04/18 03:13:13;;;;;;;3.80;2.77;;;9.60;90.00;;;;;;5049266;28;20220;-70
2021/04/18 03:15:43;;;;;;;3.43;2.90;;;9.60;90.00;;;;;;5029807;28;20874;-70
2021/04/18 03:18:09;;;;;;;9.90;6.20;;;9.50;90.00;;;;;;5049118;28;21116;-70
2021/04/18 03:20:36;;;;;;;6.80;4.83;;;9.50;90.00;;;;;;5017276;28;20423;-70
2021/04/18 03:23:03;;;;;;;8.40;3.73;;;9.50;90.00;;;;;;5016575;28;20528;-70
2021/04/18 03:25:29;;;;;;;4.73;3.60;;;9.50;90.00;;;;;;5032819;28;20481;-69
2021/04/18 03:27:55;;;;;;;5.20;3.03;;;9.50;90.10;;;;;;5049110;28;20497;-70
2021/04/18 03:30:35;;;;;;;3.40;3.10;;;9.50;90.10;;;;;;5019800;28;20430;-71
2021/04/18 03:33:03;;;;;;;5.53;3.30;;;9.50;90.10;;;;;;5048932;28;20454;-70
2021/04/18 03:35:29;;;;;;;5.60;3.13;;;9.50;90.10;;;;;;5016869;28;20450;-70
2021/04/18 03:37:55;;;;;;;5.90;3.40;;;9.50;90.10;;;;;;5032506;28;20470;-70
2021/04/18 03:40:21;;;;;;;6.17;3.50;;;9.50;90.20;;;;;;5016919;28;20508;-70
2021/04/18 03:42:48;;;;;;;5.30;3.20;;;9.50;90.60;;;;;;5032522;28;20471;-70
2021/04/18 03:45:18;;;;;;;3.40;2.70;;;9.50;90.30;;;;;;5013452;28;20464;-70
2021/04/18 03:47:49;;;;;;;3.30;2.80;;;9.50;90.30;;;;;;5033048;28;20454;-71
2021/04/18 03:50:17;;;;;;;4.17;3.00;;;9.50;90.20;;;;;;5016126;28;20457;-70
2021/04/18 03:53:01;;;;;;;3.07;2.77;;;9.40;90.20;;;;;;5049332;28;20599;-70
2021/04/18 03:55:29;;;;;;;3.70;3.27;;;9.50;90.30;;;;;;5045190;28;20439;-71
2021/04/18 03:57:57;;;;;;;2.93;2.57;;;9.50;90.30;;;;;;5020389;28;20614;-69
2021/04/18 04:00:23;;;;;;;4.27;2.97;;;9.50;90.30;;;;;;5036701;28;21267;-70
2021/04/18 04:02:57;;;;;;;6.83;4.20;;;9.50;90.30;;;;;;5006569;28;20457;-70
2021/04/18 04:05:23;;;;;;;2.90;2.60;;;9.50;90.30;;;;;;5053508;28;20447;-70
2021/04/18 04:07:50;;;;;;;5.50;3.13;;;9.50;90.30;;;;;;5019950;28;20819;-70
2021/04/18 04:10:16;;;;;;;6.80;3.37;;;9.50;90.30;;;;;;5020174;28;20445;-71
2021/04/18 04:12:47;;;;;;;5.37;3.70;;;9.50;90.40;;;;;;5052860;28;20458;-71
2021/04/18 04:15:13;;;;;;;4.53;3.17;;;9.50;90.50;;;;;;5019959;28;20458;-71
2021/04/18 04:17:39;;;;;;;4.60;3.40;;;9.50;90.50;;;;;;5016546;28;20217;-70
2021/04/18 04:20:25;;;;;;;3.80;3.03;;;9.50;90.50;;;;;;5026256;28;20449;-70
2021/04/18 04:23:01;;;;;;;5.93;3.80;;;9.50;90.60;;;;;;5037502;28;21020;-69
2021/04/18 04:25:29;;;;;;;5.90;3.77;;;9.50;90.80;;;;;;5053758;28;20450;-70
2021/04/18 04:27:55;;;;;;;5.50;4.07;;;9.40;90.70;;;;;;5019472;28;20215;-70
2021/04/18 04:30:21;;;;;;;6.93;3.80;;;9.40;90.80;;;;;;5035590;28;20494;-70
2021/04/18 04:32:47;;;;;;;5.90;3.60;;;9.40;90.70;;;;;;5019663;28;20461;-71
2021/04/18 04:35:13;;;;;;;5.27;2.73;;;9.30;90.70;;;;;;5036164;28;20470;-70
2021/04/18 04:37:39;;;;;;;5.57;3.57;;;9.30;90.70;;;;;;5051807;28;20220;-70
2021/04/18 04:40:06;;;;;;;5.17;4.37;;;9.30;90.80;;;;;;5052186;28;20438;-70
2021/04/18 04:42:31;;;;;;;3.80;2.77;;;9.30;90.80;;;;;;5035104;28;20973;-71
2021/04/18 04:44:57;;;;;;;7.13;3.40;;;9.30;90.70;;;;;;5036206;28;20465;-70
2021/04/18 04:47:22;;;;;;;5.43;3.03;;;9.40;90.70;;;;;;5035509;28;20227;-70
2021/04/18 04:49:48;;;;;;;4.60;3.30;;;9.40;90.60;;;;;;5019026;28;20683;-70
2021/04/18 04:52:14;;;;;;;5.03;3.07;;;9.40;90.70;;;;;;5035316;28;20218;-71
2021/04/18 04:54:40;;;;;;;3.60;2.77;;;9.40;90.70;;;;;;5019234;28;20215;-70
2021/04/18 04:57:06;;;;;;;3.83;3.00;;;9.40;90.70;;;;;;5052189;28;20286;-71
2021/04/18 04:59:32;;;;;;;4.63;2.87;;;9.40;90.70;;;;;;5027146;28;20443;-70
2021/04/18 05:01:58;;;;;;;5.70;2.63;;;9.40;90.70;;;;;;5034448;28;20454;-70
2021/04/18 05:04:23;;;;;;;3.40;3.10;;;9.40;90.90;;;;;;5051757;28;20683;-70
2021/04/18 05:06:49;;;;;;;4.07;2.80;;;9.40;90.80;;;;;;5035925;28;20188;-70
2021/04/18 05:09:15;;;;;;;4.70;2.97;;;9.40;90.80;;;;;;5018185;28;20299;-70
2021/04/18 05:11:40;;;;;;;3.27;2.80;;;9.40;90.90;;;;;;5035351;28;20184;-71
2021/04/18 05:14:06;;;;;;;6.10;3.17;;;9.50;91.40;;;;;;5035263;28;20592;-70
2021/04/18 05:16:32;;;;;;;3.63;2.93;;;9.40;91.00;;;;;;5018787;28;20192;-70
2021/04/18 05:18:57;;;;;;;3.23;2.60;;;9.40;91.00;;;;;;5018099;28;20243;-70
2021/04/18 05:21:26;;;;;;;3.57;3.00;;;9.40;91.10;;;;;;5018558;28;20218;-71
2021/04/18 05:23:52;;;;;;;3.73;2.63;;;9.40;91.10;;;;;;5023882;28;20273;-70
2021/04/18 05:26:18;;;;;;;6.57;3.27;;;9.40;91.50;;;;;;5014990;28;20998;-70
2021/04/18 05:28:44;;;;;;;5.00;3.33;;;9.40;91.10;;;;;;5049990;28;20454;-69
2021/04/18 05:31:09;;;;;;;3.90;3.50;;;9.40;91.30;;;;;;5051810;28;20223;-70
2021/04/18 05:33:35;;;;;;;10.30;4.60;;;9.40;91.40;;;;;;5034644;28;20243;-71
2021/04/18 05:36:01;;;;;;;9.73;5.83;;;9.50;91.50;;;;;;5051261;28;20211;-69
2021/04/18 05:38:27;;;;;;;12.10;6.57;;;9.50;91.50;;;;;;5051105;28;20228;-70
2021/04/18 05:40:53;;;;;;;12.70;7.70;;;9.50;91.80;;;;;;5035042;28;20203;-71
2021/04/18 05:43:18;;;;;;;10.13;6.10;;;9.50;91.80;;;;;;5017959;28;20224;-70
2021/04/18 05:45:44;;;;;;;8.20;5.63;;;9.50;91.90;;;;;;5026351;28;20466;-71
2021/04/18 05:48:10;;;;;;;8.27;5.30;;;9.50;92.10;;;;;;5034451;28;20234;-71
2021/04/18 05:50:36;;;;;;;7.30;4.40;;;9.50;92.00;;;;;;5017531;28;20184;-71
2021/04/18 05:53:02;;;;;;;6.50;4.13;;;9.50;92.20;;;;;;5034506;28;20301;-71
2021/04/18 05:55:28;;;;;;;5.00;4.50;;;9.50;92.40;;;;;;5035112;28;20204;-69
2021/04/18 05:57:54;;;;;;;6.20;4.23;;;9.50;92.40;;;;;;5017767;28;20450;-70
2021/04/18 06:00:20;;;;;;;8.00;4.00;;;9.50;92.70;;;;;;5034214;28;20537;-70
2021/04/18 06:02:47;;;;;;;7.20;5.27;;;9.50;92.90;;;;;;5050394;28;20231;-69
2021/04/18 06:05:13;;;;;;;6.43;4.40;;;9.50;92.90;;;;;;5018195;28;20453;-71
2021/04/18 06:07:39;;;;;;;6.37;4.10;;;9.50;92.70;;;;;;5017105;28;20447;-70
2021/04/18 06:10:05;;;;;;;6.83;4.17;;;9.50;93.00;;;;;;5017596;28;20449;-70
2021/04/18 06:12:31;;;;;;;3.70;3.20;;;9.50;93.20;;;;;;5016261;28;20230;-71
2021/04/18 06:14:57;;;;;;;4.43;3.90;;;9.50;93.40;;;;;;5017042;28;20455;-70
2021/04/18 06:17:23;;;;;;;5.77;3.60;;;9.50;93.50;;;;;;5033605;28;20338;-71
2021/04/18 06:19:49;;;;;;;5.27;3.17;;;9.50;93.30;;;;;;5050754;28;20195;-70
2021/04/18 06:22:14;;;;;;;5.90;3.70;;;9.50;93.40;;;;;;5025558;28;20463;-71
2021/04/18 06:24:40;;;;;;;4.93;3.80;;;9.50;93.50;;;;;;5034075;28;20207;-70
2021/04/18 06:27:06;;;;;;;3.30;3.07;;;9.50;93.60;;;;;;5013869;28;20555;-71
2021/04/18 06:29:32;;;;;;;5.07;3.03;;;9.50;93.50;;;;;;5047296;28;20172;-72
2021/04/18 06:31:58;;;;;;;6.60;4.00;;;9.50;93.60;;;;;;5012645;28;20444;-71
2021/04/18 06:34:23;;;;;;;5.37;3.80;;;9.60;93.70;;;;;;5027322;28;20216;-70
2021/04/18 06:36:50;;;;;;;4.70;3.50;;;9.60;93.80;;;;;;5014234;28;20716;-70
2021/04/18 06:39:16;;;;;;;6.33;4.03;;;9.60;93.80;;;;;;5029992;28;20220;-71
2021/04/18 06:41:52;;;;;;;5.50;4.20;;;9.60;93.90;;;;;;5033543;28;20819;-70
2021/04/18 06:44:19;;;;;;;4.00;3.60;;;9.60;94.00;;;;;;5053775;28;20950;-71
2021/04/18 06:46:47;;;;;;;5.60;3.93;;;9.60;94.30;;;;;;5049890;28;20521;-70
2021/04/18 06:49:14;;;;;;;5.97;3.80;;;9.60;94.30;;;;;;5050092;28;20451;-70
2021/04/18 06:51:40;;;;;;;6.20;4.60;;;9.60;94.80;;;;;;5047165;28;20449;-70
2021/04/18 06:54:06;;;;;;;9.40;4.67;;;9.60;94.70;;;;;;5032095;28;20458;-70
2021/04/18 06:56:33;;;;;;;8.30;5.13;;;9.60;94.70;;;;;;5050906;28;20274;-70
2021/04/18 06:58:59;;;;;;;7.47;4.47;;;9.60;94.90;;;;;;5027666;28;20495;-71
2021/04/18 07:01:26;;;;;;;4.87;4.40;;;9.60;95.10;;;;;;5049334;28;20458;-70
2021/04/18 07:04:15;;;;;;;6.13;4.33;;;9.60;96.10;;;;;;5032494;28;20458;-69
2021/04/18 07:06:46;;;;;;;6.23;4.10;;;9.60;96.00;;;;;;5049078;28;20887;-70
2021/04/18 07:09:13;;;;;;;6.23;3.60;;;9.60;96.10;;;;;;5011750;28;20998;-69
2021/04/18 07:12:03;;;;;;;6.57;4.37;;;9.60;96.20;;;;;;5031408;28;20808;-70
2021/04/18 07:14:31;;;;;;;5.50;4.00;;;9.60;96.00;;;;;;5016218;28;20483;-70
2021/04/18 07:17:14;;;;;;;7.30;5.30;;;9.60;96.20;;;;;;5014037;28;20431;-70
2021/04/18 07:19:42;;;;;;;6.50;4.50;;;9.60;96.80;;;;;;5031979;28;20434;-71
2021/04/18 07:22:08;;;;;;;9.17;5.30;;;9.50;96.70;;;;;;5031763;28;20477;-71
2021/04/18 07:24:54;;;;;;;8.57;5.73;;;9.60;96.80;;;;;;5049267;28;20458;-71
2021/04/18 07:27:21;;;;;;;7.17;5.27;;;9.60;96.50;;;;;;5046525;28;20862;-71
2021/04/18 07:30:05;;;;;;;6.70;4.97;;;9.60;96.30;;;;;;5050861;28;20428;-70
2021/04/18 07:32:31;;;;;;;8.10;5.30;;;9.50;97.10;;;;;;5041757;28;20455;-70
2021/04/18 07:34:57;;;;;;;6.47;4.50;;;9.50;96.80;;;;;;5013172;28;20466;-70
2021/04/18 07:37:28;;;;;;;9.20;4.90;;;9.60;96.60;;;;;;5011690;28;20239;-70
2021/04/18 07:40:00;;;;;;;6.57;4.73;;;9.60;97.00;;;;;;5048139;28;20438;-71
2021/04/18 07:42:40;;;;;;;5.83;4.13;;;9.60;96.50;;;;;;5045558;28;20701;-70
2021/04/18 07:45:09;;;;;;;5.83;4.17;;;9.60;96.30;;;;;;5029709;28;20466;-70
2021/04/18 07:47:38;;;;;;;5.87;4.10;;;9.60;96.30;;;;;;5029058;28;20471;-71
2021/04/18 07:50:06;;;;;;;6.80;4.67;;;9.60;96.40;;;;;;5029354;28;20434;-70
2021/04/18 07:52:34;;;;;;;6.77;5.03;;;9.70;96.40;;;;;;5046216;28;20457;-71
2021/04/18 07:55:01;;;;;;;5.77;4.00;;;9.60;97.00;;;;;;5032804;28;20492;-69
2021/04/18 07:57:27;;;;;;;5.70;4.33;;;9.60;96.60;;;;;;5050096;28;20457;-70
2021/04/18 07:59:53;;;;;;;5.50;4.03;;;9.70;96.50;;;;;;5015930;28;20435;-71
2021/04/18 08:02:20;;;;;;;7.30;4.17;;;9.70;96.90;;;;;;5014843;28;20314;-70
2021/04/18 08:04:50;;;;;;;6.67;4.30;;;9.60;96.90;;;;;;5049159;28;20529;-69
2021/04/18 08:07:16;;;;;;;8.90;4.27;;;9.70;96.80;;;;;;5022284;28;20474;-68
2021/04/18 08:09:42;;;;;;;4.90;4.40;;;9.60;96.90;;;;;;5047772;28;20453;-70
2021/04/18 08:12:18;;;;;;;4.70;3.30;;;9.70;96.90;;;;;;5031951;28;20770;-70
2021/04/18 08:14:46;;;;;;;6.00;4.33;;;9.70;96.90;;;;;;5049919;28;20191;-70
2021/04/18 08:17:17;;;;;;;6.33;4.77;;;9.70;97.80;;;;;;5032458;28;20507;-71
2021/04/18 08:19:57;;;;;;;11.20;6.13;;;9.70;97.60;;;;;;5048506;28;20434;-69
2021/04/18 08:22:24;;;;;;;8.00;4.10;;;9.70;97.50;;;;;;5048221;28;20484;-70
2021/04/18 08:25:07;;;;;;;6.67;4.37;;;9.70;97.70;;;;;;5049016;28;20439;-70
2021/04/18 08:28:06;;;;;;;4.30;3.90;;;9.70;97.60;;;;;;5048195;28;20546;-70
2021/04/18 08:31:00;;;;;;;3.53;3.23;;;9.70;97.80;;;;;;5048739;28;20506;-69
2021/04/18 08:33:38;;;;;;;5.77;4.13;;;9.70;98.10;;;;;;5047871;28;20478;-70
2021/04/18 08:36:17;;;;;;;7.17;4.33;;;9.80;98.10;;;;;;5031679;28;20463;-70
2021/04/18 08:38:48;;;;;;;6.20;4.13;;;9.80;98.10;;;;;;5050586;28;20936;-73
2021/04/18 08:41:15;;;;;;;6.60;4.70;;;9.80;98.80;;;;;;5036085;28;20462;-70
2021/04/18 08:44:12;;;;;;;7.13;4.03;;;9.80;98.30;;;;;;5033348;28;20446;-70
2021/04/18 08:46:38;;;;;;;4.90;3.77;;;9.80;98.50;;;;;;5051627;28;20479;-70
2021/04/18 08:49:03;;;;;;;5.90;4.10;;;9.80;98.50;;;;;;5034847;28;20442;-70
2021/04/18 08:51:29;;;;;;;8.10;6.17;;;9.80;98.70;;;;;;5052506;28;20211;-71
2021/04/18 08:53:57;;;;;;;14.43;6.37;;;9.80;99.20;;;;;;5035509;28;20726;-70
2021/04/18 08:56:42;;;;;;;12.50;7.37;;;9.80;99.20;;;;;;5036103;28;20212;-70
2021/04/18 08:59:13;;;;;;;7.07;6.00;;;9.80;99.30;;;;;;5030165;28;20470;-70
2021/04/18 09:01:38;;;;;;;8.67;6.30;;;9.80;99.20;;;;;;5050344;28;20519;-70
2021/04/18 09:04:09;;;;;;;15.73;9.60;;;9.80;99.00;;;;;;5001190;28;20466;-70
2021/04/18 09:06:36;;;;;;;12.53;6.03;;;9.80;99.10;;;;;;5035783;28;20192;-71
2021/04/18 09:09:06;;;;;;;10.27;5.77;;;9.80;99.60;;;;;;5029906;28;20564;-70
2021/04/18 09:11:41;;;;;;;7.00;4.27;;;9.80;99.90;;;;;;5015973;28;20528;-70
2021/04/18 09:14:08;;;;;;;7.07;4.60;;;9.80;99.60;;;;;;5051347;28;20529;-70
2021/04/18 09:16:35;;;;;;;6.90;4.50;;;9.80;99.80;;;;;;5051842;28;20418;-71
2021/04/18 09:19:22;;;;;;;4.83;4.10;;;9.80;99.90;;;;;;5034485;28;20493;-72
2021/04/18 09:22:04;;;;;;;6.63;4.97;;;9.80;99.90;;;;;;5034322;28;20537;-71
2021/04/18 09:24:32;;;;;;;7.73;5.13;;;9.80;99.90;;;;;;5051163;28;20458;-71
2021/04/18 09:27:05;;;;;;;10.03;5.97;;;9.90;99.90;;;;;;5050849;28;20933;-70
2021/04/18 09:29:31;;;;;;;8.47;6.33;;;9.90;99.90;;;;;;5034440;28;20434;-69
2021/04/18 09:32:03;;;;;;;11.50;10.07;;;9.90;99.90;;;;;;5050764;28;20435;-70
2021/04/18 09:34:30;;;;;;;7.37;6.27;;;9.90;99.90;;;;;;5034875;28;20982;-70
2021/04/18 09:36:57;;;;;;;8.93;7.33;;;10.00;99.90;;;;;;5048309;28;20568;-70
2021/04/18 09:39:30;;;;;;;8.40;6.77;;;10.00;99.90;;;;;;5017571;28;20502;-70
2021/04/18 09:41:58;;;;;;;12.80;5.63;;;10.00;99.90;;;;;;5050725;28;20832;-70
2021/04/18 09:44:36;;;;;;;8.87;6.20;;;10.00;99.90;;;;;;5052451;28;20454;-70
2021/04/18 09:47:15;;;;;;;5.27;4.77;;;10.10;99.90;;;;;;5050907;28;20418;-70
2021/04/18 09:49:48;;;;;;;7.37;5.27;;;10.10;99.90;;;;;;5032378;28;20437;-70
2021/04/18 09:52:30;;;;;;;11.17;5.93;;;10.00;99.90;;;;;;5050659;28;20454;-72
2021/04/18 09:55:12;;;;;;;6.23;4.83;;;10.00;99.90;;;;;;5046560;28;20800;-70
2021/04/18 09:57:46;;;;;;;7.73;4.80;;;10.00;99.90;;;;;;5030852;28;20458;-70
2021/04/18 10:00:12;;;;;;;6.87;4.67;;;10.00;99.90;;;;;;5012880;28;20447;-70
2021/04/18 10:02:38;;;;;;;3.10;2.90;;;10.10;99.90;;;;;;5023615;28;20504;-71
2021/04/18 10:05:16;;;;;;;9.83;4.67;;;10.10;99.90;;;;;;4988262;28;20516;-71
2021/04/18 10:07:42;;;;;;;5.23;4.23;;;10.10;99.90;;;;;;5041499;28;20455;-70
2021/04/18 10:10:10;;;;;;;6.73;4.73;;;10.10;99.90;;;;;;5042191;28;20463;-70
2021/04/18 10:12:46;;;;;;;7.27;5.30;;;10.10;99.90;;;;;;5038280;28;20506;-69
2021/04/18 10:15:12;;;;;;;7.93;5.50;;;10.10;99.90;;;;;;5022185;28;20484;-70
2021/04/18 10:17:38;;;;;;;5.57;5.00;;;10.20;99.90;;;;;;5044165;28;20474;-71
2021/04/18 10:20:06;;;;;;;5.37;3.83;;;10.20;99.90;;;;;;5027884;28;20201;-70
2021/04/18 10:22:32;;;;;;;5.63;4.87;;;10.20;99.90;;;;;;5025310;28;20230;-70
2021/04/18 10:24:58;;;;;;;9.30;5.00;;;10.20;99.90;;;;;;5012722;28;20578;-71
2021/04/18 10:27:33;;;;;;;7.73;5.10;;;10.20;99.90;;;;;;5025950;28;20478;-71
2021/04/18 10:30:06;;;;;;;5.43;4.43;;;10.20;99.90;;;;;;5013264;28;20559;-70
2021/04/18 10:32:32;;;;;;;7.70;4.73;;;10.20;99.90;;;;;;5023782;28;20470;-67
2021/04/18 10:34:57;;;;;;;5.17;4.47;;;10.20;99.90;;;;;;5041855;28;20586;-69
2021/04/18 10:37:23;;;;;;;8.60;5.90;;;10.30;99.90;;;;;;5008356;28;20307;-70
2021/04/18 10:39:49;;;;;;;8.83;4.83;;;10.30;99.90;;;;;;5041385;28;20198;-69
2021/04/18 10:42:14;;;;;;;10.00;5.50;;;10.30;99.90;;;;;;5025131;28;20228;-70
2021/04/18 10:44:41;;;;;;;7.93;5.73;;;10.30;99.90;;;;;;5027580;28;20207;-70
2021/04/18 10:47:16;;;;;;;8.27;5.10;;;10.30;99.90;;;;;;5045881;28;20180;-70
2021/04/18 10:49:42;;;;;;;6.67;5.00;;;10.30;99.90;;;;;;5041381;28;20441;-71
2021/04/18 10:52:08;;;;;;;7.80;4.50;;;10.30;99.90;;;;;;5026141;28;20455;-70
2021/04/18 10:54:33;;;;;;;7.30;4.67;;;10.40;99.90;;;;;;5043331;28;20535;-70
2021/04/18 10:56:59;;;;;;;14.20;5.20;;;10.40;99.90;;;;;;5040457;28;20688;-71
2021/04/18 10:59:25;;;;;;;8.80;5.53;;;10.40;99.90;;;;;;5040067;28;20188;-70
2021/04/18 11:01:51;;;;;;;8.80;5.33;;;10.40;99.90;;;;;;5010504;28;20335;-70
2021/04/18 11:04:18;;;;;;;6.70;4.73;;;10.40;99.90;;;;;;5051965;28;20306;-71
2021/04/18 11:06:44;;;;;;;7.83;5.90;;;10.40;99.90;;;;;;5036807;28;20508;-69
2021/04/18 11:09:10;;;;;;;6.50;5.17;;;10.40;99.90;;;;;;5009474;28;20470;-70
2021/04/18 11:11:36;;;;;;;8.20;5.60;;;10.40;99.90;;;;;;5027586;28;20202;-69
2021/04/18 11:14:03;;;;;;;7.73;6.07;;;10.40;99.90;;;;;;5043819;28;20466;-70
2021/04/18 11:16:28;;;;;;;10.10;5.50;;;10.40;99.90;;;;;;5026275;28;20451;-70
2021/04/18 11:18:54;;;;;;;8.13;6.07;;;10.40;99.90;;;;;;5006010;28;20529;-71
2021/04/18 11:21:22;;;;;;;11.07;6.30;;;10.40;99.90;;;;;;5036383;28;20251;-70
2021/04/18 11:23:49;;;;;;;8.20;5.30;;;10.50;99.90;;;;;;5024906;28;20216;-70
2021/04/18 11:26:15;;;;;;;8.73;5.37;;;10.50;99.90;;;;;;5037573;28;21029;-71
2021/04/18 11:28:40;;;;;;;8.97;6.40;;;10.50;99.90;;;;;;5028304;28;20546;-71
2021/04/18 11:31:06;;;;;;;7.63;5.60;;;10.50;99.90;;;;;;5011485;28;20180;-71
2021/04/18 11:33:32;;;;;;;8.50;6.13;;;10.50;99.90;;;;;;5047856;28;20679;-71
2021/04/18 11:35:58;;;;;;;9.97;6.27;;;10.50;99.90;;;;;;5048357;28;20200;-70
2021/04/18 11:38:24;;;;;;;9.77;7.73;;;10.60;99.90;;;;;;5054843;28;20277;-70
2021/04/18 11:40:49;;;;;;;10.47;6.57;;;10.50;99.90;;;;;;5024137;28;20192;-71
2021/04/18 11:43:15;;;;;;;7.43;6.53;;;10.60;99.90;;;;;;5048914;28;20305;-70
2021/04/18 11:45:41;;;;;;;7.33;5.77;;;10.60;99.90;;;;;;5032713;28;20287;-71
2021/04/18 11:48:08;;;;;;;9.67;6.70;;;10.60;99.90;;;;;;5048383;28;20223;-69
2021/04/18 11:50:34;;;;;;;6.37;5.10;;;10.70;99.90;;;;;;5048441;28;20525;-71
2021/04/18 11:52:59;;;;;;;9.43;5.90;;;10.70;99.90;;;;;;5045866;28;20458;-71
2021/04/18 11:55:26;;;;;;;7.87;5.27;;;10.70;99.90;;;;;;5048276;28;20454;-70
2021/04/18 11:57:51;;;;;;;10.47;5.90;;;10.60;99.90;;;;;;5031230;28;20242;-71
2021/04/18 12:00:19;;;;;;;8.83;6.47;;;10.60;99.90;;;;;;5031793;28;20431;-71
2021/04/18 12:02:45;;;;;;;8.30;5.13;;;10.60;99.90;;;;;;5054614;28;20227;-71
2021/04/18 12:05:12;;;;;;;13.33;6.20;;;10.60;99.90;;;;;;5015644;28;20607;-69
2021/04/18 12:07:37;;;;;;;9.80;6.67;;;10.60;99.90;;;;;;5015118;28;20497;-71
2021/04/18 12:10:08;;;;;;;6.60;6.00;;;10.60;99.90;;;;;;5032349;28;20458;-70
2021/04/18 12:12:34;;;;;;;11.50;7.27;;;10.60;99.90;;;;;;5037669;28;20697;-71
2021/04/18 12:14:59;;;;;;;7.67;6.83;;;10.60;99.90;;;;;;5052122;28;20469;-70
2021/04/18 12:17:26;;;;;;;12.00;7.43;;;10.70;99.90;;;;;;5034936;28;20454;-71
2021/04/18 12:19:51;;;;;;;8.80;6.20;;;10.70;99.90;;;;;;5051707;28;20193;-71
2021/04/18 12:22:17;;;;;;;8.97;5.90;;;10.70;99.90;;;;;;5034216;28;20466;-71
2021/04/18 12:24:43;;;;;;;8.50;6.73;;;10.70;99.90;;;;;;5052111;28;20204;-71
2021/04/18 12:27:09;;;;;;;6.50;4.17;;;10.80;99.90;;;;;;5015317;28;20189;-71
2021/04/18 12:29:35;;;;;;;10.23;6.77;;;10.80;99.90;;;;;;5039292;28;20191;-70
2021/04/18 12:32:01;;;;;;;9.40;6.33;;;10.70;99.90;;;;;;5016355;28;20471;-71
2021/04/18 12:34:26;;;;;;;7.40;4.77;;;10.80;99.90;;;;;;5019262;28;20547;-71
2021/04/18 12:36:52;;;;;;;10.00;6.57;;;10.80;99.90;;;;;;5019644;28;20182;-71
2021/04/18 12:39:18;;;;;;;8.60;7.20;;;10.80;99.90;;;;;;5018159;28;20224;-71
2021/04/18 12:41:44;;;;;;;9.87;7.07;;;10.80;99.90;;;;;;5015009;28;20216;-71
2021/04/18 12:44:10;;;;;;;10.37;7.67;;;10.80;99.90;;;;;;4998621;28;20451;-71
2021/04/18 12:46:35;;;;;;;9.37;5.97;;;10.80;99.90;;;;;;5040902;28;20188;-71
2021/04/18 12:49:01;;;;;;;9.90;5.60;;;10.90;99.90;;;;;;5049954;28;20295;-71
2021/04/18 12:51:27;;;;;;;10.47;7.37;;;10.90;99.90;;;;;;5015573;28;20195;-70
2021/04/18 12:53:54;;;;;;;10.57;7.40;;;11.00;99.90;;;;;;5020436;28;20219;-71
2021/04/18 12:56:20;;;;;;;10.27;7.40;;;11.00;99.90;;;;;;5012634;28;20443;-71
2021/04/18 12:58:46;;;;;;;10.03;8.10;;;11.00;99.90;;;;;;5051758;28;20465;-69